Time;durP1;ratioP1;P1;durP2;ratioP2;P2;SDS_P1;SDS_P2;PMS_P1;PMS_P2;Temp;Humidity;BMP_temperature;BMP_pressure;BME280_temperature;BME280_humidity;BME280_pressure;Samples;Min_cycle;Max_cycle;Signal;HPM_P1;HPM_P2
2021/09/05 00:00:51;;;;;;;5.00;2.37;;;11.10;1.00;;;;;;4375607;28;656144;-67
2021/09/05 00:03:41;;;;;;;10.33;2.47;;;11.10;1.00;;;;;;4373997;28;656802;-68
2021/09/05 00:06:31;;;;;;;6.93;2.73;;;11.10;1.00;;;;;;4376750;28;656900;-67
2021/09/05 00:09:19;;;;;;;9.67;2.80;;;11.00;1.00;;;;;;4377898;28;655884;-67
2021/09/05 00:12:09;;;;;;;8.57;2.80;;;11.00;18.10;;;;;;4381928;28;655765;-67
2021/09/05 00:15:00;;;;;;;7.37;2.77;;;10.90;17.90;;;;;;4378810;28;656707;-67
2021/09/05 00:17:49;;;;;;;5.33;2.67;;;10.90;53.60;;;;;;4377088;28;656513;-67
2021/09/05 00:20:38;;;;;;;7.33;3.27;;;10.90;94.30;;;;;;4386489;28;657007;-67
2021/09/05 00:23:26;;;;;;;5.97;2.73;;;10.90;99.90;;;;;;4338532;28;657235;-67
2021/09/05 00:26:16;;;;;;;6.73;2.60;;;10.80;99.90;;;;;;4342865;28;657127;-67
2021/09/05 00:29:04;;;;;;;6.97;2.90;;;10.80;99.90;;;;;;4372159;28;656824;-67
2021/09/05 00:31:56;;;;;;;7.17;3.03;;;10.80;99.90;;;;;;4359243;28;656775;-67
2021/09/05 00:34:44;;;;;;;7.80;3.20;;;10.70;99.90;;;;;;4343165;28;656282;-67
2021/09/05 00:37:36;;;;;;;5.00;2.70;;;10.70;99.90;;;;;;4364774;28;656068;-67
2021/09/05 00:40:25;;;;;;;4.63;2.90;;;10.70;99.90;;;;;;4315805;28;656954;-67
2021/09/05 00:43:15;;;;;;;7.37;2.93;;;10.60;99.90;;;;;;4341203;28;656337;-67
2021/09/05 00:46:05;;;;;;;4.90;2.90;;;10.60;99.90;;;;;;4345466;28;656184;-67
2021/09/05 00:48:55;;;;;;;12.63;3.80;;;10.60;99.90;;;;;;4342972;28;656902;-67
2021/09/05 00:51:44;;;;;;;6.40;2.87;;;10.60;99.90;;;;;;4341698;28;657600;-67
2021/09/05 00:54:34;;;;;;;7.47;3.07;;;10.60;99.90;;;;;;4360837;28;656675;-68
2021/09/05 00:57:24;;;;;;;5.43;2.70;;;10.60;99.90;;;;;;4356643;28;656328;-67
2021/09/05 01:00:14;;;;;;;11.10;2.77;;;10.60;99.90;;;;;;4386030;28;656394;-67
2021/09/05 01:03:02;;;;;;;7.53;2.50;;;10.60;1.00;;;;;;4336242;28;657320;-67
2021/09/05 01:05:53;;;;;;;6.40;2.97;;;10.60;1.00;;;;;;4339016;28;656136;-67
2021/09/05 01:08:42;;;;;;;6.27;2.70;;;10.50;1.00;;;;;;4339121;28;656669;-67
2021/09/05 01:11:31;;;;;;;10.53;2.80;;;10.50;1.00;;;;;;4338963;28;656412;-67
2021/09/05 01:14:20;;;;;;;5.80;3.00;;;10.50;1.00;;;;;;4338407;28;656907;-67
2021/09/05 01:17:12;;;;;;;6.80;3.10;;;10.40;1.00;;;;;;4343191;28;655479;-67
2021/09/05 01:20:01;;;;;;;7.97;3.40;;;10.40;1.00;;;;;;4340956;28;656436;-67
2021/09/05 01:22:51;;;;;;;8.67;3.50;;;10.40;1.00;;;;;;4343268;28;655587;-67
2021/09/05 01:25:40;;;;;;;7.63;3.13;;;10.30;1.00;;;;;;4338791;28;655890;-67
2021/09/05 01:28:31;;;;;;;5.53;3.00;;;10.30;1.00;;;;;;4338666;28;655616;-67
2021/09/05 01:31:19;;;;;;;5.00;2.83;;;10.30;1.00;;;;;;4338744;28;656077;-67
2021/09/05 01:34:09;;;;;;;6.70;2.90;;;10.20;1.00;;;;;;4356514;28;655477;-67
2021/09/05 01:36:57;;;;;;;6.90;3.00;;;10.20;1.00;;;;;;4361994;28;656167;-67
2021/09/05 01:39:49;;;;;;;8.10;3.00;;;10.20;1.00;;;;;;4338366;28;656107;-67
2021/09/05 01:42:37;;;;;;;7.20;3.13;;;10.20;1.00;;;;;;4339049;28;655708;-67
2021/09/05 01:45:27;;;;;;;6.67;3.37;;;10.20;1.00;;;;;;4343112;28;656656;-67
2021/09/05 01:48:16;;;;;;;5.37;2.77;;;10.20;1.00;;;;;;4343607;28;655915;-67
2021/09/05 01:51:04;;;;;;;8.87;3.63;;;10.20;1.00;;;;;;4341664;28;655854;-67
2021/09/05 01:53:54;;;;;;;8.23;3.20;;;10.20;1.00;;;;;;4354418;28;655116;-67
2021/09/05 01:56:42;;;;;;;9.27;3.17;;;10.20;1.00;;;;;;4361251;28;656098;-67
2021/09/05 01:59:31;;;;;;;7.30;3.33;;;10.20;1.00;;;;;;4336396;28;655901;-68
2021/09/05 02:02:22;;;;;;;6.67;3.87;;;10.20;1.00;;;;;;4339010;28;655640;-67
2021/09/05 02:05:11;;;;;;;7.40;3.20;;;10.20;1.00;;;;;;4338067;28;656001;-67
2021/09/05 02:07:59;;;;;;;8.52;3.10;;;10.10;1.00;;;;;;4342962;28;655456;-67
2021/09/05 02:10:49;;;;;;;9.13;3.33;;;10.10;1.00;;;;;;4358277;28;655377;-67
2021/09/05 02:13:37;;;;;;;7.50;2.70;;;10.10;1.00;;;;;;4361527;28;655675;-67
2021/09/05 02:16:26;;;;;;;8.77;3.33;;;10.10;1.00;;;;;;4334496;28;656322;-67
2021/09/05 02:19:16;;;;;;;7.77;3.37;;;10.10;1.00;;;;;;4343083;28;655260;-67
2021/09/05 02:22:05;;;;;;;5.53;3.17;;;10.10;1.00;;;;;;4339180;28;656831;-67
2021/09/05 02:24:54;;;;;;;6.87;3.03;;;10.00;1.00;;;;;;4344211;28;655787;-67
2021/09/05 02:27:42;;;;;;;6.13;3.17;;;10.00;1.00;;;;;;4365349;28;655479;-67
2021/09/05 02:30:31;;;;;;;6.43;2.73;;;10.00;1.00;;;;;;4341549;28;656436;-67
2021/09/05 02:33:20;;;;;;;7.40;3.30;;;10.00;1.00;;;;;;4338415;28;656952;-67
2021/09/05 02:36:10;;;;;;;9.70;3.30;;;10.00;1.00;;;;;;4345277;28;655988;-67
2021/09/05 02:39:00;;;;;;;6.73;3.03;;;10.00;1.00;;;;;;4344791;28;655411;-68
2021/09/05 02:41:49;;;;;;;6.70;3.13;;;9.90;1.00;;;;;;4346609;28;655367;-67
2021/09/05 02:44:37;;;;;;;5.97;3.03;;;9.90;1.00;;;;;;4364667;28;653956;-67
2021/09/05 02:47:25;;;;;;;7.90;2.90;;;9.90;1.00;;;;;;4338346;28;654528;-67
2021/09/05 02:50:14;;;;;;;6.07;2.80;;;9.90;1.00;;;;;;4346836;28;654271;-68
2021/09/05 02:53:05;;;;;;;5.50;2.63;;;9.90;1.00;;;;;;4365782;28;654429;-67
2021/09/05 02:55:54;;;;;;;6.23;3.23;;;9.90;1.00;;;;;;4321848;28;654961;-67
2021/09/05 02:58:43;;;;;;;5.13;2.53;;;9.90;1.00;;;;;;4357471;28;654624;-67
2021/09/05 03:01:32;;;;;;;7.53;2.90;;;10.00;1.00;;;;;;4363085;28;655087;-67
2021/09/05 03:04:21;;;;;;;6.33;2.53;;;10.00;1.00;;;;;;4340234;28;656196;-67
2021/09/05 03:07:10;;;;;;;8.10;3.03;;;10.00;1.00;;;;;;4340938;28;655842;-67
2021/09/05 03:10:01;;;;;;;6.13;2.77;;;9.90;1.00;;;;;;4344915;28;656162;-67
2021/09/05 03:12:49;;;;;;;8.30;2.63;;;9.90;1.00;;;;;;4345985;28;654654;-67
2021/09/05 03:15:38;;;;;;;7.63;2.80;;;9.80;1.00;;;;;;4359201;28;654308;-67
2021/09/05 03:18:27;;;;;;;8.50;3.03;;;9.80;1.00;;;;;;4360320;28;654049;-67
2021/09/05 03:21:16;;;;;;;9.50;3.10;;;9.80;1.00;;;;;;4336045;28;655329;-67
2021/09/05 03:24:05;;;;;;;7.07;2.90;;;9.70;1.00;;;;;;4345630;28;654592;-67
2021/09/05 03:26:56;;;;;;;8.13;2.97;;;9.70;1.00;;;;;;4346354;28;654391;-67
2021/09/05 03:29:45;;;;;;;10.60;3.00;;;9.70;1.00;;;;;;4342594;28;654784;-67
2021/09/05 03:32:34;;;;;;;6.47;3.00;;;9.60;1.00;;;;;;4344883;28;655108;-67
2021/09/05 03:35:22;;;;;;;6.07;2.75;;;9.60;1.00;;;;;;4361810;28;654381;-67
2021/09/05 03:38:11;;;;;;;6.40;3.00;;;9.60;1.00;;;;;;4341470;28;654925;-67
2021/09/05 03:41:00;;;;;;;6.87;2.83;;;9.50;1.00;;;;;;4345960;28;654781;-67
2021/09/05 03:43:50;;;;;;;5.73;2.63;;;9.50;1.00;;;;;;4347984;28;654594;-67
2021/09/05 03:46:38;;;;;;;7.40;2.73;;;9.50;1.00;;;;;;4345359;28;654691;-67
2021/09/05 03:49:28;;;;;;;5.80;2.50;;;9.50;1.00;;;;;;4363645;28;654391;-67
2021/09/05 03:52:17;;;;;;;6.63;2.47;;;9.60;1.00;;;;;;4341554;28;655351;-67
2021/09/05 03:55:07;;;;;;;5.20;2.40;;;9.60;1.00;;;;;;4345853;28;655761;-67
2021/09/05 03:57:54;;;;;;;4.27;2.40;;;9.60;1.00;;;;;;4345532;28;655156;-67
2021/09/05 04:00:44;;;;;;;4.73;2.50;;;9.70;1.00;;;;;;4363336;28;654447;-67
2021/09/05 04:03:43;;;;;;;6.33;2.50;;;9.80;1.00;;;;;;4355197;28;654594;-67
2021/09/05 04:06:31;;;;;;;5.40;2.20;;;9.90;1.00;;;;;;4350958;28;654621;-67
2021/09/05 04:10:08;;;;;;;6.27;2.60;;;9.90;1.00;;;;;;4345592;28;654397;-67
2021/09/05 04:12:26;;;;;;;9.80;2.90;;;10.10;1.00;;;;;;4341538;28;654804;-67
2021/09/05 04:15:14;;;;;;;4.73;1.97;;;10.10;1.00;;;;;;4339982;28;655361;-67
2021/09/05 04:18:02;;;;;;;5.30;2.20;;;10.20;1.00;;;;;;4361738;28;655521;-67
2021/09/05 04:20:50;;;;;;;3.83;2.40;;;10.30;1.00;;;;;;4340406;28;656535;-67
2021/09/05 04:23:38;;;;;;;5.50;2.33;;;10.40;1.00;;;;;;4344242;28;655865;-67
2021/09/05 04:26:26;;;;;;;4.57;2.17;;;10.50;1.00;;;;;;4362843;28;656551;-67
2021/09/05 04:29:14;;;;;;;6.23;1.90;;;10.50;1.00;;;;;;4343908;28;657304;-67
2021/09/05 04:32:01;;;;;;;5.77;2.10;;;10.60;1.00;;;;;;4362795;28;655636;-67
2021/09/05 04:34:50;;;;;;;4.30;2.10;;;10.70;1.00;;;;;;4340352;28;656479;-67
2021/09/05 04:37:38;;;;;;;8.27;1.87;;;10.80;99.90;;;;;;4344411;28;655358;-67
2021/09/05 04:40:25;;;;;;;5.70;2.00;;;10.80;99.90;;;;;;4362028;28;657267;-67
2021/09/05 04:43:13;;;;;;;5.13;2.13;;;10.90;99.90;;;;;;4343247;28;656552;-67
2021/09/05 04:46:01;;;;;;;7.07;2.15;;;11.00;99.90;;;;;;4361177;28;657350;-67
2021/09/05 04:48:48;;;;;;;4.77;1.93;;;11.00;99.90;;;;;;4339141;28;656916;-67
2021/09/05 04:51:37;;;;;;;5.10;2.40;;;11.10;99.90;;;;;;4361370;28;657640;-67
2021/09/05 04:54:24;;;;;;;6.33;2.20;;;11.20;99.90;;;;;;4337591;28;657718;-68
2021/09/05 04:57:12;;;;;;;5.90;2.10;;;11.30;99.90;;;;;;4355650;28;657028;-67
2021/09/05 05:00:00;;;;;;;6.13;2.33;;;11.30;99.90;;;;;;4364091;28;657250;-67
2021/09/05 05:02:47;;;;;;;6.00;2.13;;;11.40;99.90;;;;;;4342999;28;657108;-67
2021/09/05 05:05:35;;;;;;;4.27;1.97;;;11.50;99.90;;;;;;4361440;28;657601;-67
2021/09/05 05:08:24;;;;;;;5.90;2.03;;;11.50;99.90;;;;;;4342478;28;656655;-67
2021/09/05 05:11:16;;;;;;;4.20;1.90;;;11.60;99.90;;;;;;4360689;28;656546;-67
2021/09/05 05:14:03;;;;;;;3.97;1.80;;;11.70;99.90;;;;;;4339948;28;656778;-67
2021/09/05 05:16:51;;;;;;;4.17;1.80;;;11.80;99.90;;;;;;4361266;28;657067;-67
2021/09/05 05:19:38;;;;;;;6.17;2.33;;;11.80;99.90;;;;;;4341986;28;656657;-67
2021/09/05 05:22:26;;;;;;;6.03;1.87;;;12.00;99.90;;;;;;4361068;28;656748;-67
2021/09/05 05:25:15;;;;;;;8.47;1.73;;;12.10;99.90;;;;;;4337861;28;656809;-67
2021/09/05 05:28:03;;;;;;;3.30;1.80;;;12.20;99.90;;;;;;4341289;28;656517;-67
2021/09/05 05:30:50;;;;;;;5.33;2.17;;;12.40;99.90;;;;;;4363901;28;657137;-67
2021/09/05 05:33:38;;;;;;;3.10;1.73;;;12.60;99.90;;;;;;4340462;28;656598;-68
2021/09/05 05:36:25;;;;;;;4.20;1.70;;;12.70;84.30;;;;;;4364305;28;657009;-67
2021/09/05 05:39:13;;;;;;;3.43;1.70;;;12.80;42.20;;;;;;4341342;28;656356;-67
2021/09/05 05:42:02;;;;;;;4.77;1.67;;;13.00;13.30;;;;;;4359461;28;657249;-67
2021/09/05 05:44:49;;;;;;;4.47;2.00;;;13.10;1.00;;;;;;4336807;28;657352;-67
2021/09/05 05:47:37;;;;;;;2.60;1.50;;;13.20;1.00;;;;;;4359617;28;655972;-67
2021/09/05 05:50:25;;;;;;;5.33;1.77;;;13.30;1.00;;;;;;4360599;28;656323;-67
2021/09/05 05:53:13;;;;;;;4.03;1.90;;;13.40;1.00;;;;;;4341652;28;655872;-67
2021/09/05 05:56:00;;;;;;;6.37;1.50;;;13.50;1.00;;;;;;4363464;28;656254;-67
2021/09/05 05:58:49;;;;;;;3.47;1.50;;;13.60;1.00;;;;;;4342896;28;655980;-67
2021/09/05 06:01:40;;;;;;;3.60;1.63;;;13.60;1.00;;;;;;4364027;28;655471;-67
2021/09/05 06:04:28;;;;;;;3.30;1.50;;;13.60;1.00;;;;;;4344758;28;655589;-67
2021/09/05 06:07:15;;;;;;;6.30;1.77;;;13.70;1.00;;;;;;4364988;28;655838;-67
2021/09/05 06:10:03;;;;;;;6.63;1.80;;;13.70;1.00;;;;;;4345790;28;655707;-67
2021/09/05 06:12:51;;;;;;;2.87;1.33;;;13.80;1.00;;;;;;4364897;28;656574;-67
2021/09/05 06:15:40;;;;;;;4.93;1.77;;;13.90;1.00;;;;;;4344335;28;655849;-67
2021/09/05 06:18:27;;;;;;;5.30;1.57;;;14.00;1.00;;;;;;4345543;28;655383;-68
2021/09/05 06:21:15;;;;;;;3.43;1.40;;;14.00;99.90;;;;;;4364597;28;656297;-67
2021/09/05 06:24:02;;;;;;;2.83;1.33;;;14.00;99.90;;;;;;4344492;28;657007;-67
2021/09/05 06:26:50;;;;;;;4.57;1.30;;;14.00;99.90;;;;;;4367909;28;657267;-67
2021/09/05 06:29:37;;;;;;;2.53;1.03;;;14.10;99.90;;;;;;4344886;28;656557;-67
2021/09/05 06:32:26;;;;;;;3.93;1.70;;;14.20;99.90;;;;;;4367862;28;657645;-67
2021/09/05 06:35:14;;;;;;;1.83;1.27;;;14.30;99.90;;;;;;4340381;28;657973;-67
2021/09/05 06:38:01;;;;;;;2.85;1.40;;;14.30;99.90;;;;;;4363465;28;656595;-67
2021/09/05 06:40:49;;;;;;;2.13;1.03;;;14.40;99.90;;;;;;4340087;28;657255;-67
2021/09/05 06:43:37;;;;;;;6.23;1.30;;;14.40;73.00;;;;;;4363125;28;657261;-67
2021/09/05 06:46:24;;;;;;;2.60;1.23;;;14.50;60.60;;;;;;4339734;28;657673;-67
2021/09/05 06:49:14;;;;;;;2.10;1.10;;;14.60;56.80;;;;;;4358952;28;657007;-67
2021/09/05 06:52:03;;;;;;;3.83;1.23;;;14.70;1.00;;;;;;4362428;28;657317;-67
2021/09/05 06:54:50;;;;;;;4.43;1.10;;;14.70;1.00;;;;;;4341212;28;656028;-67
2021/09/05 06:57:38;;;;;;;2.33;1.20;;;14.80;1.00;;;;;;4344950;28;655492;-67
2021/09/05 07:00:26;;;;;;;2.77;1.17;;;14.80;1.00;;;;;;4364091;28;656033;-67
2021/09/05 07:03:13;;;;;;;4.07;1.10;;;14.80;99.90;;;;;;4345417;28;655391;-67
2021/09/05 07:06:02;;;;;;;3.03;1.17;;;14.90;99.90;;;;;;4362943;28;657231;-67
2021/09/05 07:08:50;;;;;;;1.73;1.27;;;15.00;99.90;;;;;;4339684;28;657455;-67
2021/09/05 07:11:37;;;;;;;2.73;1.43;;;15.10;99.90;;;;;;4346882;28;657086;-67
2021/09/05 07:14:25;;;;;;;3.47;1.67;;;15.20;99.90;;;;;;4366284;28;656843;-67
2021/09/05 07:17:13;;;;;;;2.87;1.40;;;15.40;99.90;;;;;;4343799;28;656372;-67
2021/09/05 07:20:00;;;;;;;5.70;1.50;;;15.40;99.90;;;;;;4366328;28;657810;-67
2021/09/05 07:22:49;;;;;;;3.53;1.10;;;15.50;99.90;;;;;;4343777;28;656528;-67
2021/09/05 07:25:36;;;;;;;6.00;1.43;;;15.60;99.90;;;;;;4362441;28;656520;-67
2021/09/05 07:28:24;;;;;;;4.27;1.70;;;15.70;99.90;;;;;;4339563;28;657769;-67
2021/09/05 07:31:12;;;;;;;5.13;1.17;;;15.80;99.90;;;;;;4360086;28;656515;-67
2021/09/05 07:34:00;;;;;;;3.23;1.20;;;15.90;99.90;;;;;;4366242;28;656775;-67
2021/09/05 07:36:48;;;;;;;2.20;1.13;;;16.00;67.30;;;;;;4344166;28;656750;-67
2021/09/05 07:39:37;;;;;;;1.23;0.83;;;16.20;1.00;;;;;;4363249;28;657492;-67
2021/09/05 07:42:24;;;;;;;6.60;1.43;;;16.40;1.00;;;;;;4341116;28;656239;-67
2021/09/05 07:45:12;;;;;;;2.70;1.30;;;16.40;1.00;;;;;;4361609;28;656174;-67
2021/09/05 07:48:00;;;;;;;3.17;1.00;;;16.60;99.90;;;;;;4366907;28;656342;-67
2021/09/05 07:50:48;;;;;;;1.83;1.00;;;16.60;1.00;;;;;;4343346;28;656514;-67
2021/09/05 07:53:35;;;;;;;3.90;1.10;;;16.50;1.00;;;;;;4363659;28;655456;-67
2021/09/05 07:56:24;;;;;;;4.23;1.23;;;16.50;99.90;;;;;;4343931;28;655654;-67
2021/09/05 07:59:12;;;;;;;4.03;1.50;;;16.60;99.90;;;;;;4355222;28;656610;-67
2021/09/05 08:02:00;;;;;;;3.10;1.00;;;16.50;99.90;;;;;;4364560;28;656909;-67
2021/09/05 08:04:48;;;;;;;3.83;1.20;;;16.50;99.90;;;;;;4343129;28;656592;-67
2021/09/05 08:07:35;;;;;;;3.07;1.33;;;16.50;99.90;;;;;;4365889;28;657291;-67
2021/09/05 08:10:23;;;;;;;3.53;1.53;;;16.60;1.00;;;;;;4343055;28;656512;-68
2021/09/05 08:13:12;;;;;;;2.28;1.23;;;16.90;99.90;;;;;;4362344;28;656038;-67
2021/09/05 08:16:01;;;;;;;4.43;1.57;;;17.10;99.90;;;;;;4338752;28;657691;-68
2021/09/05 08:18:49;;;;;;;4.13;1.23;;;17.30;99.90;;;;;;4342784;28;656933;-67
2021/09/05 08:21:36;;;;;;;3.13;1.47;;;17.50;99.90;;;;;;4361014;28;656326;-67
2021/09/05 08:24:24;;;;;;;2.73;1.20;;;17.50;99.90;;;;;;4338907;28;657445;-68
2021/09/05 08:27:12;;;;;;;3.83;1.20;;;17.60;1.00;;;;;;4360946;28;656543;-67
2021/09/05 08:30:01;;;;;;;3.77;1.30;;;17.90;6.00;;;;;;4344274;28;655703;-67
2021/09/05 08:32:48;;;;;;;2.43;1.10;;;17.80;1.00;;;;;;4344006;28;655845;-67
2021/09/05 08:35:36;;;;;;;3.53;1.30;;;17.80;1.00;;;;;;4362504;28;655619;-67
2021/09/05 08:38:23;;;;;;;4.50;1.42;;;17.80;99.90;;;;;;4343708;28;655745;-67
2021/09/05 08:41:11;;;;;;;1.23;0.90;;;17.90;99.90;;;;;;4361079;28;656739;-68
2021/09/05 08:43:59;;;;;;;3.43;1.30;;;17.90;99.90;;;;;;4339113;28;657215;-67
2021/09/05 08:46:48;;;;;;;3.37;1.40;;;18.10;99.90;;;;;;4362255;28;656292;-67
2021/09/05 08:49:36;;;;;;;2.10;1.40;;;18.40;99.90;;;;;;4338843;28;656937;-68
2021/09/05 08:52:25;;;;;;;1.70;1.17;;;18.60;99.90;;;;;;4342272;28;656914;-68
2021/09/05 08:55:13;;;;;;;3.07;1.20;;;18.90;99.90;;;;;;4346200;28;656648;-67
2021/09/05 08:58:03;;;;;;;2.53;1.50;;;19.10;1.00;;;;;;4360765;28;656271;-67
2021/09/05 09:00:55;;;;;;;3.07;1.40;;;19.30;1.00;;;;;;4339319;28;656433;-67
2021/09/05 09:03:47;;;;;;;3.40;1.47;;;19.50;99.90;;;;;;4320879;28;655598;-68
2021/09/05 09:06:43;;;;;;;1.97;1.30;;;19.40;99.90;;;;;;4324287;28;657440;-68
2021/09/05 09:09:35;;;;;;;2.80;1.20;;;19.50;99.90;;;;;;4321185;28;657840;-68
2021/09/05 09:12:41;;;;;;;2.50;1.30;;;19.50;32.80;;;;;;4319639;28;656367;-67
2021/09/05 09:15:38;;;;;;;3.60;1.27;;;19.60;21.50;;;;;;4298671;28;656663;-68
2021/09/05 09:18:34;;;;;;;1.97;1.13;;;19.90;79.50;;;;;;4320986;28;657348;-68
2021/09/05 09:21:26;;;;;;;3.13;1.10;;;20.20;99.90;;;;;;4319901;28;657235;-68
2021/09/05 09:24:18;;;;;;;4.33;1.33;;;20.80;12.30;;;;;;4298438;28;656671;-68
2021/09/05 09:27:06;;;;;;;1.90;1.20;;;21.10;56.20;;;;;;4321289;28;657429;-68
2021/09/05 09:29:55;;;;;;;1.80;1.07;;;21.10;1.00;;;;;;4325028;28;656856;-68
2021/09/05 09:32:50;;;;;;;2.30;1.23;;;21.20;1.00;;;;;;4326473;28;655639;-68
2021/09/05 09:35:48;;;;;;;1.73;1.00;;;21.50;1.00;;;;;;4303449;28;655350;-68
2021/09/05 09:38:37;;;;;;;3.67;1.27;;;21.60;99.90;;;;;;4389560;28;656009;-68
2021/09/05 09:41:28;;;;;;;2.80;1.07;;;21.90;99.90;;;;;;4321025;28;657699;-68
2021/09/05 09:44:15;;;;;;;2.93;1.37;;;21.60;99.90;;;;;;4319331;28;656875;-68
2021/09/05 09:47:10;;;;;;;1.88;1.13;;;22.00;99.90;;;;;;4321109;28;656474;-68
2021/09/05 09:49:58;;;;;;;1.27;1.00;;;21.90;70.10;;;;;;4325556;28;656438;-68
2021/09/05 09:52:46;;;;;;;3.10;1.00;;;22.10;11.70;;;;;;4344113;28;656679;-68
2021/09/05 09:55:36;;;;;;;4.57;1.10;;;22.10;54.30;;;;;;4321049;28;656544;-68
2021/09/05 09:58:24;;;;;;;2.43;1.10;;;22.10;1.00;;;;;;4324408;28;658432;-68
2021/09/05 10:01:14;;;;;;;1.53;0.80;;;22.40;1.00;;;;;;4344211;28;655334;-68
2021/09/05 10:04:02;;;;;;;1.77;0.83;;;22.20;1.00;;;;;;4323715;28;656271;-68
2021/09/05 10:06:50;;;;;;;4.93;1.00;;;22.30;1.00;;;;;;4339043;28;656687;-68
2021/09/05 10:09:41;;;;;;;1.77;0.97;;;22.30;1.00;;;;;;4342792;28;655616;-68
2021/09/05 10:12:29;;;;;;;1.87;1.03;;;22.10;1.00;;;;;;4343142;28;655142;-68
2021/09/05 10:15:20;;;;;;;3.63;1.07;;;22.40;1.00;;;;;;4351209;28;655716;-68
2021/09/05 10:18:13;;;;;;;1.50;0.90;;;22.60;1.00;;;;;;4342211;28;655698;-68
2021/09/05 10:21:05;;;;;;;1.60;0.90;;;22.60;1.00;;;;;;4337338;28;655921;-68
2021/09/05 10:23:57;;;;;;;1.60;0.90;;;22.70;99.90;;;;;;4320048;28;655669;-68
2021/09/05 10:27:04;;;;;;;2.07;0.83;;;22.70;99.90;;;;;;4340505;28;657190;-68
2021/09/05 10:30:21;;;;;;;1.50;0.80;;;22.80;99.90;;;;;;4331971;28;656523;-68
2021/09/05 10:33:10;;;;;;;2.23;1.03;;;22.60;99.90;;;;;;4314723;28;657815;-68
2021/09/05 10:36:08;;;;;;;4.20;1.00;;;23.00;99.90;;;;;;4341235;28;656468;-68
2021/09/05 10:39:08;;;;;;;2.33;0.90;;;23.00;99.90;;;;;;4337273;28;656624;-68
2021/09/05 10:41:58;;;;;;;1.70;1.00;;;23.10;99.90;;;;;;4336854;28;656618;-68
2021/09/05 10:45:00;;;;;;;2.47;1.00;;;23.00;99.90;;;;;;4337833;28;657647;-68
2021/09/05 10:47:49;;;;;;;3.23;1.00;;;23.40;99.90;;;;;;4318077;28;657510;-68
2021/09/05 10:50:38;;;;;;;0.83;0.80;;;23.30;99.90;;;;;;4357242;28;656544;-68
2021/09/05 10:53:26;;;;;;;1.93;0.90;;;23.40;99.90;;;;;;4362569;28;656739;-68
2021/09/05 10:56:17;;;;;;;2.20;1.10;;;23.50;99.90;;;;;;4343779;28;656391;-68
2021/09/05 10:59:16;;;;;;;2.33;1.20;;;23.20;99.90;;;;;;4340162;28;657705;-68
2021/09/05 11:02:05;;;;;;;5.27;1.00;;;22.80;99.90;;;;;;4339551;28;657174;-68
2021/09/05 11:04:57;;;;;;;1.70;1.10;;;22.80;99.90;;;;;;4343416;28;656765;-68
2021/09/05 11:07:53;;;;;;;1.70;1.00;;;23.00;99.90;;;;;;4344276;28;658209;-68
2021/09/05 11:10:53;;;;;;;1.93;1.07;;;23.10;99.90;;;;;;4339615;28;657493;-68
2021/09/05 11:13:55;;;;;;;1.40;0.90;;;23.30;99.90;;;;;;4343842;28;657002;-68
2021/09/05 11:16:47;;;;;;;1.63;1.20;;;23.30;99.90;;;;;;4321002;28;656983;-68
2021/09/05 11:19:39;;;;;;;1.87;1.13;;;23.20;99.90;;;;;;4339556;28;657690;-68
2021/09/05 11:22:38;;;;;;;1.50;0.90;;;23.30;99.90;;;;;;4335026;28;656819;-68
2021/09/05 11:25:27;;;;;;;2.53;0.90;;;23.40;99.90;;;;;;4339058;28;657326;-68
2021/09/05 11:28:15;;;;;;;1.43;0.90;;;23.30;99.90;;;;;;4343504;28;656609;-68
2021/09/05 11:31:03;;;;;;;2.23;1.00;;;23.50;99.90;;;;;;4343477;28;656414;-68
2021/09/05 11:33:51;;;;;;;1.33;1.00;;;24.10;99.90;;;;;;4362285;28;657360;-68
2021/09/05 11:36:43;;;;;;;1.67;1.20;;;24.20;99.90;;;;;;4343833;28;656963;-68
2021/09/05 11:39:32;;;;;;;1.93;1.10;;;24.00;99.90;;;;;;4339749;28;657115;-68
2021/09/05 11:42:25;;;;;;;1.30;1.00;;;23.90;99.90;;;;;;4340017;28;656859;-68
2021/09/05 11:45:19;;;;;;;1.17;0.90;;;24.10;99.90;;;;;;4320990;28;656512;-68
2021/09/05 11:48:12;;;;;;;2.67;1.07;;;23.80;99.90;;;;;;4339792;28;657043;-68
2021/09/05 11:51:10;;;;;;;1.30;0.93;;;23.90;99.90;;;;;;4316751;28;657189;-68
2021/09/05 11:54:03;;;;;;;1.73;1.00;;;23.60;99.90;;;;;;4326012;28;656710;-68
2021/09/05 11:56:56;;;;;;;4.63;0.90;;;23.60;99.90;;;;;;4337832;28;656855;-68
2021/09/05 11:59:44;;;;;;;1.53;1.00;;;23.90;99.90;;;;;;4337778;28;657378;-68
2021/09/05 12:02:33;;;;;;;1.57;0.90;;;23.80;33.90;;;;;;4362381;28;656684;-68
2021/09/05 12:05:20;;;;;;;1.63;0.93;;;23.80;8.60;;;;;;4339668;28;657034;-68
2021/09/05 12:08:08;;;;;;;1.90;1.10;;;24.10;6.30;;;;;;4344337;28;656028;-68
2021/09/05 12:11:06;;;;;;;1.60;0.80;;;24.50;6.10;;;;;;4363613;28;656134;-68
2021/09/05 12:14:04;;;;;;;2.55;0.90;;;24.70;18.50;;;;;;4321564;28;655869;-68
2021/09/05 12:16:56;;;;;;;1.55;1.13;;;25.10;1.00;;;;;;4338634;28;656926;-68
2021/09/05 12:20:02;;;;;;;3.35;1.02;;;24.90;1.00;;;;;;4317229;28;655686;-68
2021/09/05 12:22:51;;;;;;;1.83;1.00;;;24.90;1.00;;;;;;4340089;28;656454;-68
2021/09/05 12:25:38;;;;;;;2.90;1.00;;;24.90;1.00;;;;;;4344112;28;655763;-68
2021/09/05 12:28:27;;;;;;;2.35;1.00;;;24.70;1.00;;;;;;4361397;28;655649;-68
2021/09/05 12:31:16;;;;;;;2.22;1.17;;;24.40;1.00;;;;;;4339832;28;656441;-68
2021/09/05 12:34:04;;;;;;;2.35;0.82;;;24.70;1.00;;;;;;4344044;28;655894;-68
2021/09/05 12:36:56;;;;;;;2.72;0.73;;;25.00;1.00;;;;;;4363161;28;656315;-68
2021/09/05 12:39:44;;;;;;;2.08;1.00;;;24.70;1.00;;;;;;4339576;28;656078;-68
2021/09/05 12:42:31;;;;;;;2.65;1.00;;;25.10;1.00;;;;;;4363634;28;655406;-68
2021/09/05 12:45:19;;;;;;;2.25;0.98;;;25.30;1.00;;;;;;4339741;28;657174;-68
2021/09/05 12:48:19;;;;;;;2.42;0.90;;;25.50;1.00;;;;;;4366704;28;654807;-68
2021/09/05 12:51:08;;;;;;;1.17;0.75;;;24.90;1.00;;;;;;4339691;28;655734;-68
2021/09/05 12:54:04;;;;;;;1.20;0.90;;;24.90;1.00;;;;;;4339603;28;655550;-68
2021/09/05 12:56:56;;;;;;;0.93;0.80;;;24.90;1.00;;;;;;4339409;28;655877;-68
2021/09/05 12:59:51;;;;;;;1.65;1.00;;;24.70;1.00;;;;;;4317306;28;657163;-68
2021/09/05 13:02:42;;;;;;;2.53;0.98;;;25.00;1.00;;;;;;4316977;28;656906;-68
2021/09/05 13:05:36;;;;;;;1.52;0.95;;;25.20;1.00;;;;;;4359728;28;656510;-68
2021/09/05 13:08:27;;;;;;;1.77;0.88;;;25.20;8.60;;;;;;4414690;28;655208;-68
2021/09/05 13:11:15;;;;;;;1.75;0.88;;;25.50;11.80;;;;;;4410614;28;656383;-68
2021/09/05 13:14:03;;;;;;;2.13;1.00;;;25.90;1.00;;;;;;4412200;28;657018;-68
2021/09/05 13:16:50;;;;;;;1.15;0.90;;;25.70;1.00;;;;;;4433057;28;656787;-68
2021/09/05 13:19:38;;;;;;;1.70;1.30;;;25.40;1.00;;;;;;4414727;28;655645;-68
2021/09/05 13:22:27;;;;;;;1.85;1.05;;;25.90;1.00;;;;;;4433081;28;656351;-69
2021/09/05 13:25:15;;;;;;;2.00;1.13;;;25.60;1.00;;;;;;4398640;28;657138;-68
2021/09/05 13:28:02;;;;;;;1.20;1.02;;;25.90;1.00;;;;;;4342738;28;655237;-68
2021/09/05 13:30:50;;;;;;;4.22;1.13;;;26.00;1.00;;;;;;4366317;28;656478;-68
2021/09/05 13:33:37;;;;;;;3.08;1.10;;;26.10;1.00;;;;;;4343121;28;656107;-68
2021/09/05 13:36:25;;;;;;;1.33;0.95;;;25.70;1.00;;;;;;4365553;28;656051;-68
2021/09/05 13:39:14;;;;;;;2.33;1.20;;;25.70;1.00;;;;;;4342940;28;655496;-68
2021/09/05 13:42:02;;;;;;;2.70;0.85;;;25.60;1.00;;;;;;4357453;28;655418;-68
2021/09/05 13:44:50;;;;;;;2.65;1.00;;;25.30;1.00;;;;;;4366221;28;656221;-69
2021/09/05 13:47:41;;;;;;;2.60;1.05;;;24.70;1.00;;;;;;4342931;28;655369;-68
2021/09/05 13:50:28;;;;;;;1.05;0.90;;;24.70;1.00;;;;;;4343774;28;655553;-68
2021/09/05 13:53:16;;;;;;;1.80;0.85;;;25.10;1.00;;;;;;4352595;28;655558;-68
2021/09/05 13:56:05;;;;;;;2.85;1.10;;;25.50;1.00;;;;;;4341932;28;655336;-68
2021/09/05 13:58:53;;;;;;;2.13;1.20;;;25.80;1.00;;;;;;4342709;28;655963;-68
2021/09/05 14:01:40;;;;;;;1.15;0.90;;;25.80;1.00;;;;;;4361826;28;656706;-68
2021/09/05 14:04:28;;;;;;;2.03;0.80;;;25.80;1.00;;;;;;4413748;28;655493;-68
2021/09/05 14:07:16;;;;;;;2.20;0.95;;;25.70;1.00;;;;;;4361453;28;656227;-68
2021/09/05 14:10:04;;;;;;;2.33;0.80;;;25.80;1.00;;;;;;4342960;28;655958;-68
2021/09/05 14:12:53;;;;;;;1.27;0.80;;;26.20;1.00;;;;;;4360124;28;655742;-68
2021/09/05 14:15:40;;;;;;;1.55;1.00;;;26.20;1.00;;;;;;4338143;28;657137;-68
2021/09/05 14:18:28;;;;;;;1.50;1.00;;;25.80;1.00;;;;;;4342005;28;656043;-68
2021/09/05 14:21:15;;;;;;;2.25;1.10;;;25.80;1.00;;;;;;4364530;28;656533;-68
2021/09/05 14:24:03;;;;;;;3.90;0.95;;;25.70;1.00;;;;;;4412148;28;655635;-68
2021/09/05 14:26:55;;;;;;;1.88;0.85;;;25.40;1.00;;;;;;4364714;28;656581;-68
2021/09/05 14:29:48;;;;;;;1.55;1.20;;;25.20;1.00;;;;;;4323030;28;655800;-68
2021/09/05 14:32:43;;;;;;;2.28;1.27;;;24.90;1.00;;;;;;4339269;28;656197;-68
2021/09/05 14:48:05;;;;;;;2.60;1.30;;;25.10;1.00;;;;;;4317620;28;656687;-68
2021/09/05 14:51:06;;;;;;;2.97;1.20;;;25.30;1.00;;;;;;4317472;28;656045;-68